Time;durP1;ratioP1;P1;durP2;ratioP2;P2;SDS_P1;SDS_P2;PMS_P1;PMS_P2;Temp;Humidity;BMP_temperature;BMP_pressure;BME280_temperature;BME280_humidity;BME280_pressure;Samples;Min_cycle;Max_cycle;Signal;HPM_P1;HPM_P2
2023/01/29 00:01:11;;;;;;;16.83;12.30;;;3.90;99.90;;;;;;6214298;23;20012;-85
2023/01/29 00:03:37;;;;;;;16.63;11.93;;;3.90;99.90;;;;;;6187725;23;20013;-85
2023/01/29 00:06:08;;;;;;;20.13;12.63;;;3.90;99.90;;;;;;6212813;23;20016;-85
2023/01/29 00:08:34;;;;;;;19.40;13.57;;;3.90;99.90;;;;;;6212215;23;20036;-84
2023/01/29 00:11:01;;;;;;;16.77;13.20;;;4.00;99.90;;;;;;6212674;23;20016;-85
2023/01/29 00:13:27;;;;;;;18.05;14.00;;;3.90;99.90;;;;;;6212754;23;20432;-85
2023/01/29 00:15:57;;;;;;;19.38;14.23;;;3.90;99.90;;;;;;6187565;23;20062;-85
2023/01/29 00:18:23;;;;;;;18.98;15.20;;;3.90;99.90;;;;;;6214700;23;20012;-86
2023/01/29 00:20:49;;;;;;;20.02;15.55;;;3.90;99.90;;;;;;6213665;23;20489;-85
2023/01/29 00:23:15;;;;;;;21.20;16.02;;;3.90;99.90;;;;;;6212883;23;20012;-85
2023/01/29 00:25:42;;;;;;;25.17;16.20;;;3.90;99.90;;;;;;6212567;23;20013;-85
2023/01/29 00:28:08;;;;;;;21.88;17.05;;;3.90;99.90;;;;;;6187594;23;20048;-85
2023/01/29 00:30:35;;;;;;;23.80;17.05;;;3.90;99.90;;;;;;6214718;23;20100;-85
2023/01/29 00:33:01;;;;;;;21.08;17.35;;;3.90;99.90;;;;;;6214453;23;20008;-85
2023/01/29 00:35:26;;;;;;;22.30;16.90;;;3.90;99.90;;;;;;6211877;23;20082;-85
2023/01/29 00:37:54;;;;;;;22.75;17.25;;;4.10;99.90;;;;;;6212156;23;20455;-85
2023/01/29 00:40:21;;;;;;;21.67;17.63;;;3.90;99.90;;;;;;6212759;23;20020;-85
2023/01/29 00:45:32;;;;;;;25.17;18.30;;;3.90;99.90;;;;;;6214382;23;20107;-85
2023/01/29 00:47:57;;;;;;;26.25;19.20;;;3.90;99.90;;;;;;6187273;23;20048;-85
2023/01/29 00:50:23;;;;;;;24.48;17.83;;;4.10;99.90;;;;;;6212095;23;20036;-85
2023/01/29 00:52:50;;;;;;;23.80;19.02;;;3.90;99.90;;;;;;6212070;23;20070;-85
2023/01/29 00:55:16;;;;;;;28.58;19.90;;;3.90;99.90;;;;;;6212665;23;20016;-85
2023/01/29 00:57:42;;;;;;;21.98;18.20;;;3.90;99.90;;;;;;6187298;23;20012;-85
2023/01/29 01:00:11;;;;;;;24.33;19.15;;;3.90;99.90;;;;;;6212680;23;20114;-85
2023/01/29 01:05:21;;;;;;;24.95;18.83;;;3.90;99.90;;;;;;6211467;23;20115;-86
2023/01/29 01:07:50;;;;;;;26.58;20.13;;;3.90;99.90;;;;;;6187811;23;20017;-85
2023/01/29 01:10:23;;;;;;;25.17;20.17;;;3.90;99.90;;;;;;6190791;23;20280;-85
2023/01/29 01:12:50;;;;;;;29.88;21.35;;;3.90;99.90;;;;;;6187840;23;20015;-85
2023/01/29 01:15:17;;;;;;;25.60;19.55;;;3.90;99.90;;;;;;6212669;23;20044;-85
2023/01/29 01:17:42;;;;;;;25.52;20.15;;;3.90;99.90;;;;;;6212645;23;20064;-85
2023/01/29 01:20:09;;;;;;;26.83;21.70;;;3.90;99.90;;;;;;6211945;23;20016;-85
2023/01/29 01:22:35;;;;;;;28.55;21.77;;;3.90;99.90;;;;;;6187008;23;20110;-85
2023/01/29 01:25:00;;;;;;;27.85;21.65;;;3.90;99.90;;;;;;6212004;23;20513;-85
2023/01/29 01:27:26;;;;;;;30.52;22.25;;;3.90;99.90;;;;;;6212646;23;20016;-85
2023/01/29 01:29:52;;;;;;;25.02;21.45;;;4.00;99.90;;;;;;6211853;23;20094;-85
2023/01/29 01:32:17;;;;;;;27.80;21.52;;;3.90;99.90;;;;;;6211838;23;20111;-84
2023/01/29 01:34:46;;;;;;;29.08;21.50;;;4.00;99.90;;;;;;6211469;23;20092;-84
2023/01/29 01:37:11;;;;;;;26.38;22.13;;;4.00;99.90;;;;;;6211576;23;20070;-85
2023/01/29 01:39:37;;;;;;;32.45;23.27;;;4.00;99.90;;;;;;6186678;23;20008;-85
2023/01/29 01:42:03;;;;;;;29.80;22.55;;;4.00;99.90;;;;;;6186838;23;20027;-85
2023/01/29 01:44:50;;;;;;;31.52;22.48;;;4.00;99.90;;;;;;6211566;23;20021;-85
2023/01/29 01:47:19;;;;;;;30.15;23.75;;;4.00;99.90;;;;;;6211768;23;20335;-85
2023/01/29 01:49:46;;;;;;;32.08;23.85;;;4.00;99.90;;;;;;6186284;23;20023;-85
2023/01/29 01:52:15;;;;;;;31.42;24.30;;;4.00;99.90;;;;;;6211639;23;20488;-85
2023/01/29 01:54:42;;;;;;;32.20;24.17;;;4.00;99.90;;;;;;6212102;23;20280;-85
2023/01/29 01:57:14;;;;;;;31.13;24.58;;;4.00;99.90;;;;;;6187147;23;20439;-85
2023/01/29 01:59:45;;;;;;;33.25;25.52;;;4.00;99.90;;;;;;6215636;23;20005;-85
2023/01/29 02:10:42;;;;;;;33.72;26.45;;;4.10;99.90;;;;;;6212394;23;20336;-85
2023/01/29 02:13:08;;;;;;;31.42;25.27;;;4.10;99.90;;;;;;6212004;23;20016;-85
2023/01/29 02:15:33;;;;;;;32.78;25.35;;;4.10;99.90;;;;;;6237708;23;20004;-85
2023/01/29 02:17:59;;;;;;;34.10;26.35;;;4.10;99.90;;;;;;6185750;23;20094;-85
2023/01/29 02:20:32;;;;;;;32.05;25.88;;;4.10;99.90;;;;;;6236933;23;20025;-85
2023/01/29 02:23:26;;;;;;;35.20;26.83;;;4.10;99.90;;;;;;6212145;23;20019;-86
2023/01/29 02:25:54;;;;;;;30.77;25.90;;;4.10;99.90;;;;;;6211761;23;20071;-85
2023/01/29 02:28:39;;;;;;;38.55;27.67;;;4.10;99.90;;;;;;6212145;23;20089;-85
2023/01/29 02:31:31;;;;;;;32.47;25.98;;;4.10;99.90;;;;;;6186552;23;20012;-85
2023/01/29 02:34:20;;;;;;;36.67;26.15;;;4.10;99.90;;;;;;6213185;23;20012;-85
2023/01/29 02:36:46;;;;;;;33.30;27.33;;;4.10;99.90;;;;;;6185785;23;20087;-84
2023/01/29 02:39:26;;;;;;;33.90;27.60;;;4.10;99.90;;;;;;6186871;23;20442;-85
2023/01/29 02:41:55;;;;;;;37.50;29.02;;;4.10;99.90;;;;;;6211621;23;20174;-85
2023/01/29 02:44:40;;;;;;;31.42;26.50;;;4.10;99.90;;;;;;6212949;23;20347;-85
2023/01/29 02:47:35;;;;;;;36.40;27.48;;;4.10;99.90;;;;;;6211871;23;20021;-85
2023/01/29 02:50:36;;;;;;;34.53;27.42;;;4.00;99.90;;;;;;6158881;23;20075;-85
2023/01/29 02:53:05;;;;;;;31.00;26.45;;;4.10;99.90;;;;;;6179254;23;20051;-85
2023/01/29 02:56:02;;;;;;;33.80;26.63;;;4.10;99.90;;;;;;6187060;23;20013;-85
2023/01/29 02:58:38;;;;;;;31.42;27.17;;;4.10;99.90;;;;;;6186527;23;20044;-85
2023/01/29 03:01:15;;;;;;;31.63;26.52;;;4.10;99.90;;;;;;6210997;23;20023;-84
2023/01/29 03:03:45;;;;;;;33.75;26.38;;;4.10;99.90;;;;;;6211305;23;20016;-86
2023/01/29 03:06:21;;;;;;;34.80;27.33;;;4.10;99.90;;;;;;6186709;23;20027;-84
2023/01/29 03:08:55;;;;;;;30.58;25.48;;;4.10;99.90;;;;;;6211935;23;20462;-86
2023/01/29 03:11:21;;;;;;;30.95;26.30;;;4.10;99.90;;;;;;6211475;23;20037;-84
2023/01/29 03:13:58;;;;;;;31.60;26.20;;;4.10;99.90;;;;;;6213087;23;20017;-85
2023/01/29 03:16:27;;;;;;;33.13;26.45;;;4.00;99.90;;;;;;6186937;23;20008;-85
2023/01/29 03:19:17;;;;;;;31.65;25.83;;;4.00;99.90;;;;;;6213890;23;20070;-85
2023/01/29 03:22:05;;;;;;;28.35;25.27;;;4.10;99.90;;;;;;6195540;23;20088;-85
2023/01/29 03:33:21;;;;;;;29.95;26.10;;;4.10;99.90;;;;;;6212701;23;20024;-85
2023/01/29 03:36:01;;;;;;;32.10;25.27;;;4.10;99.90;;;;;;6188399;23;20316;-85
2023/01/29 03:38:30;;;;;;;32.00;26.40;;;4.10;99.90;;;;;;6212868;23;20370;-85
2023/01/29 03:41:07;;;;;;;27.83;24.67;;;4.10;99.90;;;;;;6215288;23;20016;-85
2023/01/29 03:43:39;;;;;;;34.00;26.15;;;4.10;99.90;;;;;;6187491;23;20024;-84
2023/01/29 03:46:32;;;;;;;34.63;26.92;;;4.10;99.90;;;;;;6213179;23;20022;-85
2023/01/29 03:49:07;;;;;;;33.40;27.27;;;4.10;99.90;;;;;;6187496;23;20017;-84
2023/01/29 03:51:58;;;;;;;31.25;25.90;;;4.10;99.90;;;;;;6213021;23;20382;-84
2023/01/29 03:55:05;;;;;;;30.33;25.45;;;4.20;99.90;;;;;;6213201;23;20016;-85
2023/01/29 03:57:41;;;;;;;32.92;26.70;;;4.20;99.90;;;;;;6140007;23;20016;-85
2023/01/29 04:00:20;;;;;;;33.20;27.67;;;4.20;99.90;;;;;;6187355;23;20013;-85
2023/01/29 04:03:12;;;;;;;33.22;27.38;;;4.20;99.90;;;;;;6214528;23;20063;-84
2023/01/29 04:06:11;;;;;;;31.08;27.75;;;4.20;99.90;;;;;;6187487;23;20012;-84
2023/01/29 04:08:53;;;;;;;37.22;28.55;;;4.20;99.90;;;;;;6211851;23;20013;-85
2023/01/29 04:11:22;;;;;;;32.63;27.70;;;4.30;99.90;;;;;;6213869;23;20459;-84
2023/01/29 04:13:48;;;;;;;36.42;29.95;;;4.20;99.90;;;;;;6186658;23;20180;-85
2023/01/29 04:16:27;;;;;;;33.22;27.50;;;4.20;99.90;;;;;;6212307;23;20048;-84
2023/01/29 04:18:54;;;;;;;39.50;28.98;;;4.20;99.90;;;;;;6187501;23;20087;-84
2023/01/29 04:21:20;;;;;;;32.80;26.83;;;4.20;99.90;;;;;;6214514;23;20008;-85
2023/01/29 04:23:46;;;;;;;33.97;28.13;;;4.20;99.90;;;;;;6216049;23;20009;-85
2023/01/29 04:26:28;;;;;;;34.17;28.15;;;4.20;99.90;;;;;;6215319;23;20503;-84
2023/01/29 04:29:02;;;;;;;37.03;28.20;;;4.20;99.90;;;;;;6213338;23;20106;-84
2023/01/29 04:31:33;;;;;;;34.88;27.80;;;4.20;99.90;;;;;;6212613;23;20012;-85
2023/01/29 04:34:26;;;;;;;33.63;27.63;;;4.20;99.90;;;;;;6187187;23;20456;-84
2023/01/29 04:37:21;;;;;;;32.72;27.88;;;4.20;99.90;;;;;;6197661;23;20009;-85
2023/01/29 04:39:56;;;;;;;33.83;27.70;;;4.20;99.90;;;;;;6186889;23;20016;-85
2023/01/29 04:43:03;;;;;;;34.92;27.30;;;4.20;99.90;;;;;;6186625;23;20343;-84
2023/01/29 04:45:29;;;;;;;35.35;27.25;;;4.20;99.90;;;;;;6212683;23;20017;-85
2023/01/29 04:48:21;;;;;;;33.22;26.75;;;4.20;99.90;;;;;;6214167;23;20426;-84
2023/01/29 04:51:04;;;;;;;33.15;26.83;;;4.20;99.90;;;;;;6187186;23;20159;-84
2023/01/29 04:54:03;;;;;;;35.20;27.77;;;4.20;99.90;;;;;;6212491;23;20075;-85
2023/01/29 04:56:57;;;;;;;34.17;27.63;;;4.20;99.90;;;;;;6151352;23;20008;-85
2023/01/29 04:59:49;;;;;;;35.75;26.77;;;4.20;99.90;;;;;;6211902;23;20040;-84
2023/01/29 05:02:18;;;;;;;32.67;27.80;;;4.20;99.90;;;;;;6214193;23;20032;-85
2023/01/29 05:04:45;;;;;;;32.80;27.40;;;4.20;99.90;;;;;;6211799;23;20020;-84
2023/01/29 05:07:13;;;;;;;33.13;26.60;;;4.20;99.90;;;;;;6237941;23;20016;-84
2023/01/29 05:09:42;;;;;;;35.10;27.85;;;4.20;99.90;;;;;;6187013;23;20017;-85
2023/01/29 05:12:10;;;;;;;33.88;26.83;;;4.20;99.90;;;;;;6213937;23;20047;-85
2023/01/29 05:14:38;;;;;;;33.58;27.05;;;4.20;99.90;;;;;;6212711;23;20083;-86
2023/01/29 05:17:10;;;;;;;36.33;29.58;;;4.20;99.90;;;;;;6213471;23;20009;-85
2023/01/29 05:19:36;;;;;;;37.25;29.55;;;4.20;99.90;;;;;;6186830;23;20009;-85
2023/01/29 05:22:04;;;;;;;35.47;28.48;;;4.10;99.90;;;;;;6211167;23;20013;-85
2023/01/29 05:24:29;;;;;;;37.65;28.95;;;4.10;99.90;;;;;;6211734;23;20400;-85
2023/01/29 05:29:42;;;;;;;;;;;4.10;99.90;;;;;;6211668;23;20016;-85
2023/01/29 05:32:08;;;;;;;38.72;30.38;;;4.10;99.90;;;;;;6211318;23;19937;-84
2023/01/29 05:34:33;;;;;;;37.63;30.42;;;4.10;99.90;;;;;;6210997;23;20036;-85
2023/01/29 05:36:59;;;;;;;38.28;31.50;;;4.10;99.90;;;;;;6211203;23;20044;-84
2023/01/29 05:39:24;;;;;;;39.70;29.83;;;4.10;99.90;;;;;;6236731;23;20015;-85
2023/01/29 05:41:50;;;;;;;38.83;31.35;;;4.10;99.90;;;;;;6210903;23;20028;-85
2023/01/29 05:44:16;;;;;;;39.10;30.63;;;4.00;99.90;;;;;;6210903;23;20431;-85
2023/01/29 05:46:42;;;;;;;44.13;32.08;;;4.20;99.90;;;;;;6211211;23;20036;-85
2023/01/29 05:49:08;;;;;;;41.30;30.40;;;4.40;99.90;;;;;;6186002;23;20020;-85
2023/01/29 05:51:34;;;;;;;39.63;31.27;;;4.00;99.90;;;;;;6186032;23;20012;-85
2023/01/29 05:54:00;;;;;;;41.63;32.30;;;4.00;99.90;;;;;;6210934;23;20012;-85
2023/01/29 05:56:25;;;;;;;39.13;31.48;;;4.00;99.90;;;;;;6235853;23;20044;-86
2023/01/29 05:58:51;;;;;;;40.00;31.52;;;4.00;99.90;;;;;;6211023;23;20040;-85
2023/01/29 06:01:22;;;;;;;43.75;34.15;;;4.00;99.90;;;;;;6212921;23;20078;-85
2023/01/29 06:03:47;;;;;;;42.00;32.75;;;4.10;99.90;;;;;;6211040;23;20059;-85
2023/01/29 06:06:16;;;;;;;42.30;34.60;;;4.00;99.90;;;;;;6186666;23;20051;-86
2023/01/29 06:08:42;;;;;;;44.75;34.70;;;4.00;99.90;;;;;;6212409;23;20009;-85
2023/01/29 06:11:10;;;;;;;44.03;34.58;;;4.00;99.90;;;;;;6185849;23;20020;-85
2023/01/29 06:13:36;;;;;;;42.30;33.38;;;4.00;99.90;;;;;;6209254;23;20016;-86
2023/01/29 06:16:06;;;;;;;42.67;33.97;;;4.00;99.90;;;;;;6211399;23;20391;-85
2023/01/29 06:18:32;;;;;;;42.90;33.75;;;4.00;99.90;;;;;;6211706;23;20451;-85
2023/01/29 06:21:01;;;;;;;42.10;33.40;;;4.10;99.90;;;;;;6212259;23;20135;-83
2023/01/29 06:23:27;;;;;;;44.60;34.63;;;4.20;99.90;;;;;;6210530;23;20463;-85
2023/01/29 06:25:57;;;;;;;42.92;33.90;;;4.10;99.90;;;;;;6211352;23;20012;-85
2023/01/29 06:28:23;;;;;;;42.30;33.92;;;4.00;99.90;;;;;;6186569;23;20083;-85
2023/01/29 06:30:49;;;;;;;44.42;34.58;;;4.10;99.90;;;;;;6210752;23;20047;-84
2023/01/29 06:33:14;;;;;;;44.58;34.63;;;4.10;99.90;;;;;;6186825;23;20027;-85
2023/01/29 06:35:40;;;;;;;43.53;35.10;;;4.10;99.90;;;;;;6212662;23;20119;-85
2023/01/29 06:38:05;;;;;;;43.53;35.00;;;4.10;99.90;;;;;;6187075;23;20055;-85
2023/01/29 06:40:31;;;;;;;43.63;36.08;;;4.10;99.90;;;;;;6188035;23;20012;-85
2023/01/29 06:42:59;;;;;;;43.95;35.17;;;4.10;99.90;;;;;;6186338;23;20344;-84
2023/01/29 06:45:25;;;;;;;44.30;35.88;;;4.10;99.90;;;;;;6188449;23;20633;-85
2023/01/29 06:47:50;;;;;;;46.00;36.50;;;4.10;99.90;;;;;;6212876;23;20008;-85
2023/01/29 06:50:16;;;;;;;44.05;37.20;;;4.10;99.90;;;;;;6186995;23;20012;-85
2023/01/29 06:52:42;;;;;;;46.03;37.25;;;4.10;99.90;;;;;;6188569;23;20027;-83
2023/01/29 06:55:08;;;;;;;43.05;37.08;;;4.10;99.90;;;;;;6212713;23;20019;-86
2023/01/29 06:57:33;;;;;;;43.78;37.75;;;4.10;99.90;;;;;;6214984;23;20013;-85
2023/01/29 06:59:59;;;;;;;43.10;36.47;;;4.00;99.90;;;;;;6214780;23;20083;-87
2023/01/29 07:02:25;;;;;;;46.45;38.20;;;4.10;99.90;;;;;;6192374;23;20044;-87
2023/01/29 07:04:50;;;;;;;48.17;39.05;;;4.10;99.90;;;;;;6216740;23;20486;-86
2023/01/29 07:07:16;;;;;;;48.38;40.88;;;4.10;99.90;;;;;;6216204;23;20384;-85
2023/01/29 07:09:42;;;;;;;47.17;41.10;;;4.10;99.90;;;;;;6188206;23;20503;-86
2023/01/29 07:12:09;;;;;;;44.55;38.33;;;4.10;99.90;;;;;;6189920;23;20336;-85
2023/01/29 07:14:35;;;;;;;48.47;40.38;;;4.10;99.90;;;;;;6188998;23;20020;-83
2023/01/29 07:17:00;;;;;;;46.17;39.17;;;4.10;99.90;;;;;;6211111;23;20012;-82
2023/01/29 07:19:26;;;;;;;42.97;38.30;;;4.10;99.90;;;;;;6216580;23;20039;-86
2023/01/29 07:21:52;;;;;;;42.83;38.13;;;4.10;99.90;;;;;;6214491;23;20090;-86
2023/01/29 07:24:18;;;;;;;47.33;38.78;;;4.10;99.90;;;;;;6190031;23;20107;-86
2023/01/29 07:26:44;;;;;;;41.95;36.63;;;4.10;99.90;;;;;;6240349;23;20064;-86
2023/01/29 07:29:09;;;;;;;48.42;39.55;;;4.10;99.90;;;;;;6190481;23;20297;-87
2023/01/29 07:31:35;;;;;;;44.95;39.13;;;4.10;99.90;;;;;;6217170;23;20121;-84
2023/01/29 07:34:01;;;;;;;45.38;38.92;;;4.10;99.90;;;;;;6192102;23;20066;-86
2023/01/29 07:36:27;;;;;;;43.53;38.83;;;4.10;99.90;;;;;;6221609;23;20383;-87
2023/01/29 07:38:53;;;;;;;45.85;39.58;;;4.10;99.90;;;;;;6217671;23;20008;-88
2023/01/29 07:41:18;;;;;;;45.75;39.38;;;4.10;99.90;;;;;;6213063;23;20019;-85
2023/01/29 07:43:44;;;;;;;46.38;38.95;;;4.10;99.90;;;;;;6137542;23;1175107;-82
2023/01/29 07:46:10;;;;;;;44.40;39.60;;;4.00;99.90;;;;;;6214250;23;20339;-83
2023/01/29 07:48:36;;;;;;;45.88;40.22;;;4.10;99.90;;;;;;6218270;23;20016;-89
2023/01/29 07:51:01;;;;;;;48.03;40.88;;;4.00;99.90;;;;;;6189299;23;20016;-89
2023/01/29 07:53:27;;;;;;;46.25;40.80;;;4.00;99.90;;;;;;6188924;23;20019;-88
2023/01/29 07:55:53;;;;;;;49.08;41.95;;;4.00;99.90;;;;;;6186194;23;20055;-85
2023/01/29 07:58:19;;;;;;;46.15;41.05;;;4.00;99.90;;;;;;6211013;23;20005;-85
2023/01/29 08:00:45;;;;;;;47.40;40.75;;;4.00;99.90;;;;;;6212589;23;20083;-86
2023/01/29 08:03:16;;;;;;;47.88;41.25;;;4.00;99.90;;;;;;6187326;23;20023;-87
2023/01/29 08:05:43;;;;;;;45.80;39.33;;;4.00;99.90;;;;;;6187024;23;20018;-87
2023/01/29 08:08:09;;;;;;;47.05;39.15;;;4.00;99.90;;;;;;6213679;23;20015;-87
2023/01/29 08:10:36;;;;;;;47.05;40.78;;;4.00;99.90;;;;;;6212376;23;20009;-87
2023/01/29 08:13:02;;;;;;;45.30;40.50;;;4.10;99.90;;;;;;6238338;23;20009;-87
2023/01/29 08:15:28;;;;;;;45.75;40.72;;;4.30;99.90;;;;;;6212546;23;20008;-86
2023/01/29 08:17:54;;;;;;;45.00;40.17;;;4.50;99.90;;;;;;6185238;23;20083;-86
2023/01/29 08:20:21;;;;;;;44.85;38.50;;;4.10;99.90;;;;;;6210874;23;20094;-87
2023/01/29 08:22:47;;;;;;;49.45;40.78;;;4.10;99.90;;;;;;6188469;23;20019;-87
2023/01/29 08:25:13;;;;;;;45.05;39.72;;;4.20;99.90;;;;;;6189995;23;20008;-86
2023/01/29 08:27:39;;;;;;;49.95;40.90;;;4.30;99.90;;;;;;6186605;23;20044;-87
2023/01/29 08:30:06;;;;;;;44.85;38.22;;;4.40;99.90;;;;;;6211883;23;20103;-86
2023/01/29 08:32:31;;;;;;;49.13;40.05;;;4.30;99.90;;;;;;6212086;23;20009;-87
2023/01/29 08:34:57;;;;;;;46.80;38.55;;;4.40;99.90;;;;;;6211904;23;20061;-86
2023/01/29 08:37:23;;;;;;;44.75;39.95;;;4.40;99.90;;;;;;6186917;23;20019;-86
2023/01/29 08:39:48;;;;;;;46.92;39.15;;;4.50;99.90;;;;;;6211657;23;20101;-86
2023/01/29 08:42:14;;;;;;;48.72;38.92;;;4.60;99.90;;;;;;6187209;23;20017;-86
2023/01/29 08:44:40;;;;;;;41.97;37.53;;;4.50;99.90;;;;;;6211377;23;20509;-83
2023/01/29 08:47:05;;;;;;;44.45;38.92;;;4.50;99.90;;;;;;6186754;23;20393;-82
2023/01/29 08:49:31;;;;;;;45.65;39.28;;;4.50;99.90;;;;;;6213156;23;20012;-82
2023/01/29 08:51:57;;;;;;;44.92;39.70;;;4.50;99.90;;;;;;6211593;23;20016;-84
2023/01/29 08:54:23;;;;;;;43.28;38.22;;;4.50;99.90;;;;;;6214242;23;20013;-87
2023/01/29 08:56:50;;;;;;;49.38;40.75;;;4.60;99.90;;;;;;6214037;23;20023;-91
2023/01/29 08:59:15;;;;;;;47.67;39.97;;;4.90;99.90;;;;;;6213649;23;20009;-90
2023/01/29 09:01:41;;;;;;;46.13;40.15;;;4.60;99.90;;;;;;6213353;23;20012;-87
2023/01/29 09:04:07;;;;;;;45.97;38.90;;;4.90;99.90;;;;;;6212106;23;20079;-88
2023/01/29 09:06:33;;;;;;;49.65;37.53;;;4.70;99.90;;;;;;6212841;23;20009;-89
2023/01/29 09:08:59;;;;;;;45.25;38.85;;;4.80;99.90;;;;;;6185345;23;20112;-88
2023/01/29 09:11:24;;;;;;;47.50;38.50;;;4.70;99.90;;;;;;6187060;23;20093;-88
2023/01/29 09:13:50;;;;;;;48.08;39.15;;;4.70;99.90;;;;;;6217578;23;20021;-88
2023/01/29 09:16:16;;;;;;;47.60;39.20;;;4.80;99.90;;;;;;6186921;23;20017;-87
2023/01/29 09:18:41;;;;;;;48.35;40.50;;;4.80;99.90;;;;;;6211702;23;20012;-87
2023/01/29 09:21:07;;;;;;;47.10;39.13;;;4.80;99.90;;;;;;6186308;23;20028;-89
2023/01/29 09:23:33;;;;;;;50.53;39.75;;;4.80;99.90;;;;;;6211042;23;20015;-87
2023/01/29 09:25:59;;;;;;;47.13;39.42;;;4.90;99.90;;;;;;6212175;23;20166;-88
2023/01/29 09:28:24;;;;;;;44.35;37.85;;;5.00;99.90;;;;;;6187098;23;20530;-88
2023/01/29 09:30:50;;;;;;;50.22;39.03;;;5.00;99.90;;;;;;6187264;23;20288;-86
2023/01/29 09:33:17;;;;;;;51.70;39.45;;;5.00;99.90;;;;;;6211677;23;20013;-88
2023/01/29 09:35:44;;;;;;;47.70;38.38;;;5.00;99.90;;;;;;6213905;23;20004;-86
2023/01/29 09:38:10;;;;;;;46.53;39.08;;;5.10;99.90;;;;;;6187226;23;20013;-88
2023/01/29 09:41:05;;;;;;;46.38;38.17;;;5.00;99.90;;;;;;6212372;23;20019;-89
2023/01/29 09:43:59;;;;;;;47.60;38.53;;;5.30;99.90;;;;;;6211515;23;20087;-86
2023/01/29 09:46:43;;;;;;;48.65;38.40;;;5.00;99.90;;;;;;6210658;23;20393;-87
2023/01/29 09:49:15;;;;;;;48.97;38.70;;;5.00;99.90;;;;;;6213317;23;20086;-87
2023/01/29 09:51:45;;;;;;;46.92;37.97;;;5.00;99.90;;;;;;6211365;23;20107;-87
2023/01/29 09:54:23;;;;;;;48.65;37.55;;;5.10;99.90;;;;;;6211905;23;20087;-83
2023/01/29 09:56:53;;;;;;;47.47;38.45;;;5.10;99.90;;;;;;6186140;23;20012;-83
2023/01/29 09:59:21;;;;;;;47.20;38.15;;;5.10;99.90;;;;;;6212929;23;20073;-83
2023/01/29 10:02:21;;;;;;;49.28;38.20;;;5.10;99.90;;;;;;6212508;23;20332;-85
2023/01/29 10:05:09;;;;;;;50.88;39.50;;;5.10;99.90;;;;;;6187430;23;20083;-84
2023/01/29 10:08:00;;;;;;;48.42;38.25;;;5.20;99.90;;;;;;6210596;23;20464;-84
2023/01/29 10:10:49;;;;;;;46.58;38.03;;;5.20;99.90;;;;;;6212813;23;20100;-83
2023/01/29 10:13:35;;;;;;;49.58;38.25;;;5.30;99.90;;;;;;6213014;23;20100;-84
2023/01/29 10:16:25;;;;;;;46.90;36.60;;;5.30;99.90;;;;;;6211290;23;20015;-83
2023/01/29 10:19:01;;;;;;;48.08;38.47;;;5.40;99.90;;;;;;6212982;23;20098;-82
2023/01/29 10:21:41;;;;;;;47.53;38.15;;;5.40;99.90;;;;;;6210639;23;20020;-83
2023/01/29 10:24:07;;;;;;;51.42;37.75;;;5.40;99.90;;;;;;6210840;23;20016;-83
2023/01/29 10:26:34;;;;;;;48.13;37.72;;;5.40;99.90;;;;;;6212768;23;20150;-82
2023/01/29 10:29:04;;;;;;;49.72;39.83;;;5.40;99.90;;;;;;6214395;23;20432;-81
2023/01/29 10:31:33;;;;;;;49.75;40.58;;;5.40;99.90;;;;;;6212187;23;20021;-80
2023/01/29 10:34:13;;;;;;;52.83;41.28;;;5.40;99.90;;;;;;6212885;23;20019;-81
2023/01/29 10:36:45;;;;;;;51.10;41.35;;;5.30;99.90;;;;;;6214716;23;20015;-84
2023/01/29 10:39:21;;;;;;;49.83;39.47;;;5.30;99.90;;;;;;6187863;23;20059;-86
2023/01/29 10:42:17;;;;;;;51.28;41.58;;;5.30;99.90;;;;;;6213517;23;20020;-86
2023/01/29 10:45:04;;;;;;;52.92;42.80;;;5.40;99.90;;;;;;6212928;23;20012;-88
2023/01/29 10:47:52;;;;;;;53.50;41.53;;;5.50;99.90;;;;;;6215062;23;20044;-94
2023/01/29 10:50:41;;;;;;;53.22;42.17;;;5.40;99.90;;;;;;6218379;23;20013;-90
2023/01/29 10:53:35;;;;;;;52.35;41.83;;;5.40;99.90;;;;;;6190214;23;20021;-90
2023/01/29 10:56:23;;;;;;;51.60;41.15;;;5.40;99.90;;;;;;6224043;23;20045;-85
2023/01/29 10:58:52;;;;;;;53.30;40.13;;;5.40;99.90;;;;;;6213601;23;20020;-87
2023/01/29 11:01:18;;;;;;;53.72;41.50;;;5.40;99.90;;;;;;6215522;23;20005;-87
2023/01/29 11:03:43;;;;;;;52.83;42.05;;;5.60;99.90;;;;;;6188973;23;20051;-90
2023/01/29 11:06:14;;;;;;;56.22;42.63;;;5.30;99.90;;;;;;6189998;23;20272;-90
2023/01/29 11:08:53;;;;;;;54.67;41.58;;;5.50;99.90;;;;;;6189929;23;20009;-89
2023/01/29 11:11:21;;;;;;;62.28;42.90;;;5.40;99.90;;;;;;6189319;23;20014;-90
2023/01/29 11:14:12;;;;;;;56.22;43.03;;;5.50;99.90;;;;;;6188948;23;20202;-90
2023/01/29 11:16:45;;;;;;;51.95;40.97;;;5.40;99.90;;;;;;6214669;23;20009;-87
2023/01/29 11:19:11;;;;;;;53.42;41.38;;;5.40;99.90;;;;;;6188665;23;20011;-87
2023/01/29 11:21:56;;;;;;;56.22;43.00;;;5.60;99.90;;;;;;6188197;23;20100;-88
2023/01/29 11:24:22;;;;;;;54.67;42.03;;;5.40;99.90;;;;;;6213951;23;20017;-88
2023/01/29 11:26:50;;;;;;;57.13;42.58;;;5.50;99.90;;;;;;6188371;23;20082;-88
2023/01/29 11:29:35;;;;;;;54.17;41.70;;;5.50;99.90;;;;;;6213835;23;20066;-88
2023/01/29 11:32:11;;;;;;;52.90;41.22;;;5.50;99.90;;;;;;6215862;23;20012;-87
2023/01/29 11:35:24;;;;;;;58.08;42.08;;;5.50;99.90;;;;;;6215190;23;20040;-87
2023/01/29 11:37:50;;;;;;;56.00;41.45;;;5.60;99.90;;;;;;6159095;23;20020;-88
2023/01/29 11:40:19;;;;;;;56.53;42.72;;;5.60;99.90;;;;;;6191513;23;20344;-87
2023/01/29 11:42:46;;;;;;;56.03;41.55;;;5.60;99.90;;;;;;6218584;23;20071;-87
2023/01/29 11:45:26;;;;;;;55.95;42.00;;;5.50;99.90;;;;;;6224014;23;20020;-88
2023/01/29 11:47:54;;;;;;;61.03;43.38;;;5.50;99.90;;;;;;6217977;23;20062;-88
2023/01/29 11:50:32;;;;;;;50.55;41.35;;;5.50;99.90;;;;;;6191035;23;20088;-87
2023/01/29 11:53:02;;;;;;;57.28;41.63;;;5.50;99.90;;;;;;6191474;23;20020;-89
2023/01/29 11:55:32;;;;;;;54.78;42.28;;;5.50;99.90;;;;;;6216041;23;20399;-86
2023/01/29 11:58:11;;;;;;;55.28;42.10;;;5.60;99.90;;;;;;6188793;23;20016;-86
2023/01/29 12:00:40;;;;;;;59.72;41.83;;;5.50;99.90;;;;;;6189599;23;20012;-85
2023/01/29 12:03:17;;;;;;;55.53;40.72;;;5.70;99.90;;;;;;6216290;23;20107;-88
2023/01/29 12:05:58;;;;;;;49.45;39.83;;;5.50;99.90;;;;;;6214489;23;20092;-85
2023/01/29 12:08:25;;;;;;;51.78;39.95;;;5.60;99.90;;;;;;6214305;23;20316;-86
2023/01/29 12:11:14;;;;;;;54.15;42.20;;;5.60;99.90;;;;;;6188711;23;20012;-87
2023/01/29 12:13:42;;;;;;;55.85;41.80;;;5.60;99.90;;;;;;6214090;23;20111;-87
2023/01/29 12:16:36;;;;;;;50.10;39.75;;;5.60;99.90;;;;;;6213635;23;20093;-85
2023/01/29 12:19:19;;;;;;;56.08;40.78;;;5.70;99.90;;;;;;6212506;23;20017;-88
2023/01/29 12:21:50;;;;;;;50.92;40.63;;;5.70;99.90;;;;;;6187806;23;20052;-88
2023/01/29 12:24:31;;;;;;;50.10;38.92;;;5.70;99.90;;;;;;6187753;23;20090;-86
2023/01/29 12:27:08;;;;;;;46.95;39.03;;;5.70;99.90;;;;;;6212215;23;20044;-86
2023/01/29 12:29:48;;;;;;;53.40;38.75;;;5.70;99.90;;;;;;6215019;23;20013;-88
2023/01/29 12:32:29;;;;;;;50.05;39.55;;;5.70;99.90;;;;;;6212231;23;20092;-88
2023/01/29 12:35:18;;;;;;;51.75;40.15;;;5.70;99.90;;;;;;6210743;23;20020;-86
2023/01/29 12:38:18;;;;;;;50.97;39.60;;;5.70;99.90;;;;;;6186271;23;20013;-86
2023/01/29 12:40:48;;;;;;;47.42;38.92;;;5.60;99.90;;;;;;6211020;23;20521;-83
2023/01/29 12:43:16;;;;;;;46.85;38.08;;;5.60;99.90;;;;;;6237281;23;20435;-88
2023/01/29 12:45:45;;;;;;;50.10;37.70;;;5.60;99.90;;;;;;6212838;23;20021;-88
2023/01/29 12:48:18;;;;;;;43.78;37.33;;;5.60;99.90;;;;;;6212920;23;20036;-87
2023/01/29 12:50:45;;;;;;;45.35;37.60;;;5.60;99.90;;;;;;6182942;23;20008;-87
2023/01/29 12:53:33;;;;;;;45.95;36.00;;;5.70;99.90;;;;;;6211613;23;20021;-87
2023/01/29 12:56:04;;;;;;;47.33;38.83;;;5.50;99.90;;;;;;6210916;23;20013;-88
2023/01/29 12:58:45;;;;;;;45.13;38.25;;;5.50;99.90;;;;;;6212500;23;20017;-87
2023/01/29 13:01:15;;;;;;;44.40;36.25;;;5.50;99.90;;;;;;6236693;23;20023;-87
2023/01/29 13:04:05;;;;;;;47.50;39.00;;;5.50;99.90;;;;;;6186073;23;20017;-89
2023/01/29 13:06:44;;;;;;;47.15;37.92;;;5.50;99.90;;;;;;6186312;23;20028;-88
2023/01/29 13:09:23;;;;;;;48.72;38.55;;;5.50;99.90;;;;;;6211632;23;20067;-88
2023/01/29 13:11:54;;;;;;;49.55;39.25;;;5.50;99.90;;;;;;6186097;23;20044;-88
2023/01/29 13:14:49;;;;;;;54.75;39.25;;;5.50;99.90;;;;;;6210921;23;20009;-87
2023/01/29 13:17:26;;;;;;;48.03;38.08;;;5.50;99.90;;;;;;6211645;23;20032;-87
2023/01/29 13:19:57;;;;;;;48.53;37.60;;;5.50;99.90;;;;;;6186845;23;20020;-87
2023/01/29 13:22:26;;;;;;;45.78;36.42;;;5.50;99.90;;;;;;6184723;23;20139;-88
2023/01/29 13:24:53;;;;;;;48.90;35.70;;;5.40;99.90;;;;;;6209376;23;20034;-86
2023/01/29 13:27:28;;;;;;;45.78;35.97;;;5.40;99.90;;;;;;6184254;23;20019;-87
2023/01/29 13:29:55;;;;;;;44.55;35.65;;;5.50;99.90;;;;;;6210441;23;20012;-88